createdAt,value
2019-03-01T00:01:19.921Z,53.19
2019-03-01T00:04:18.214Z,53.30
2019-03-01T00:07:56.225Z,53.40
2019-03-01T00:11:25.414Z,53.60
2019-03-01T00:14:37.173Z,53.58
2019-03-01T00:18:02.330Z,53.53
2019-03-01T00:21:29.267Z,53.65
2019-03-01T00:25:02.374Z,53.83
2019-03-01T00:28:19.879Z,53.73
2019-03-01T00:31:54.771Z,54.00
2019-03-01T00:35:30.039Z,54.02
2019-03-01T00:38:59.485Z,53.63
2019-03-01T00:42:34.553Z,53.18
2019-03-01T00:45:22.819Z,52.79
2019-03-01T00:48:11.785Z,52.32
2019-03-01T00:50:59.799Z,51.73
2019-03-01T00:53:48.308Z,51.25
2019-03-01T00:56:37.821Z,51.32
2019-03-01T00:59:26.843Z,51.79
2019-03-01T01:02:16.134Z,52.10
2019-03-01T01:05:05.251Z,52.11
2019-03-01T01:07:53.391Z,52.20
2019-03-01T01:10:42.132Z,52.27
2019-03-01T01:13:31.261Z,52.48
2019-03-01T01:16:20.147Z,52.62
2019-03-01T01:19:08.878Z,52.68
2019-03-01T01:21:57.126Z,52.62
2019-03-01T01:24:45.957Z,52.84
2019-03-01T01:27:35.075Z,53.10
2019-03-01T01:30:23.887Z,53.19
2019-03-01T01:33:12.195Z,53.41
2019-03-01T01:36:00.601Z,53.43
2019-03-01T01:38:49.239Z,53.66
2019-03-01T01:41:38.045Z,53.74
2019-03-01T01:44:26.553Z,53.96
2019-03-01T01:47:15.257Z,53.88
2019-03-01T01:50:04.465Z,54.35
2019-03-01T01:52:53.225Z,54.38
2019-03-01T01:55:42.457Z,54.38
2019-03-01T01:58:31.060Z,54.50
2019-03-01T02:01:19.557Z,54.39
2019-03-01T02:04:08.449Z,54.36
2019-03-01T02:06:56.622Z,54.51
2019-03-01T02:09:45.681Z,54.59
2019-03-01T02:12:34.312Z,54.68
2019-03-01T02:15:22.326Z,54.52
2019-03-01T02:18:11.009Z,54.37
2019-03-01T02:20:59.387Z,54.36
2019-03-01T02:23:48.278Z,54.46
2019-03-01T02:26:36.267Z,54.47
2019-03-01T02:29:24.222Z,54.41
2019-03-01T02:32:12.912Z,54.38
2019-03-01T02:35:01.823Z,54.30
2019-03-01T02:37:50.173Z,54.39
2019-03-01T02:40:38.116Z,54.64
2019-03-01T02:43:26.072Z,55.01
2019-03-01T02:46:14.473Z,54.93
2019-03-01T02:49:02.658Z,54.95
2019-03-01T02:51:51.316Z,55.19
2019-03-01T02:54:39.878Z,54.96
2019-03-01T02:57:28.567Z,54.95
2019-03-01T03:00:22.319Z,54.86
2019-03-01T03:03:10.719Z,54.60
2019-03-01T03:06:24.027Z,54.34
2019-03-01T03:09:13.418Z,54.26
2019-03-01T03:12:01.771Z,54.14
2019-03-01T03:14:50.080Z,54.19
2019-03-01T03:17:38.326Z,54.15
2019-03-01T03:20:26.880Z,54.47
2019-03-01T03:23:15.383Z,55.46
2019-03-01T03:26:03.780Z,56.18
2019-03-01T03:28:52.506Z,55.93
2019-03-01T03:31:45.178Z,56.67
2019-03-01T03:34:33.951Z,55.79
2019-03-01T03:37:22.422Z,55.61
2019-03-01T03:40:11.483Z,55.57
2019-03-01T03:42:59.596Z,56.13
2019-03-01T03:45:48.507Z,57.49
2019-03-01T03:48:36.916Z,58.33
2019-03-01T03:51:25.277Z,58.58
2019-03-01T03:54:14.517Z,57.92
2019-03-01T03:57:02.806Z,58.32
2019-03-01T03:59:52.253Z,58.04
2019-03-01T04:02:40.813Z,58.14
2019-03-01T04:05:29.460Z,58.28
2019-03-01T04:08:18.252Z,59.00
2019-03-01T04:11:06.700Z,59.14
2019-03-01T04:13:55.467Z,58.66
2019-03-01T04:16:43.892Z,58.63
2019-03-01T04:19:32.980Z,58.45
2019-03-01T04:22:21.802Z,58.94
2019-03-01T04:25:10.599Z,59.03
2019-03-01T04:27:59.160Z,59.48
2019-03-01T04:30:47.795Z,59.30
2019-03-01T04:33:36.390Z,59.38
2019-03-01T04:36:24.794Z,59.16
2019-03-01T04:39:13.399Z,59.03
2019-03-01T04:42:01.954Z,58.97
2019-03-01T04:44:50.388Z,58.95
2019-03-01T04:47:39.421Z,59.00
2019-03-01T04:50:28.103Z,58.58
2019-03-01T04:53:17.310Z,58.73
2019-03-01T04:56:06.625Z,58.72
2019-03-01T04:58:54.688Z,58.56
2019-03-01T05:01:43.364Z,58.12
2019-03-01T05:04:31.960Z,57.88
2019-03-01T05:07:20.835Z,57.73
2019-03-01T05:10:11.062Z,57.76
2019-03-01T05:12:59.593Z,57.87
2019-03-01T05:15:48.142Z,57.96
2019-03-01T05:18:36.673Z,57.76
2019-03-01T05:21:25.334Z,57.92
2019-03-01T05:24:14.043Z,58.25
2019-03-01T05:27:03.174Z,58.20
2019-03-01T05:29:51.818Z,57.79
2019-03-01T05:32:40.111Z,57.91
2019-03-01T05:35:29.222Z,58.16
2019-03-01T05:38:21.691Z,59.00
2019-03-01T05:41:09.274Z,60.20
2019-03-01T05:43:58.196Z,63.36
2019-03-01T05:46:47.010Z,64.02
2019-03-01T05:49:35.506Z,66.01
2019-03-01T05:52:24.065Z,66.85
2019-03-01T05:55:13.114Z,66.67
2019-03-01T05:58:41.860Z,67.08
2019-03-01T06:01:37.840Z,67.14
2019-03-01T06:04:37.170Z,67.51
2019-03-01T06:07:39.004Z,67.05
2019-03-01T06:11:00.828Z,66.70
2019-03-01T06:14:11.825Z,66.93
2019-03-01T06:17:41.972Z,67.45
2019-03-01T06:21:17.708Z,68.01
2019-03-01T06:24:23.157Z,68.10
2019-03-01T06:28:01.234Z,67.90
2019-03-01T06:31:39.636Z,67.42
2019-03-01T06:35:24.154Z,66.86
2019-03-01T06:39:24.452Z,66.68
2019-03-01T06:42:30.374Z,66.14
2019-03-01T06:45:54.978Z,66.29
2019-03-01T06:48:54.015Z,66.08
2019-03-01T06:51:42.572Z,65.65
2019-03-01T06:54:30.976Z,65.29
2019-03-01T06:57:19.710Z,65.72
2019-03-01T07:00:09.795Z,65.65
2019-03-01T07:02:58.719Z,65.60
2019-03-01T07:05:47.019Z,65.62
2019-03-01T07:08:35.650Z,65.97
2019-03-01T07:11:24.099Z,65.95
2019-03-01T07:14:13.244Z,65.98
2019-03-01T07:17:02.350Z,66.08
2019-03-01T07:19:50.901Z,66.44
2019-03-01T07:22:39.640Z,66.87
2019-03-01T07:25:27.901Z,67.02
2019-03-01T07:28:16.757Z,67.07
2019-03-01T07:31:07.086Z,67.51
2019-03-01T07:33:58.867Z,68.15
2019-03-01T07:36:46.327Z,68.92
2019-03-01T07:39:34.933Z,69.63
2019-03-01T07:42:23.448Z,70.14
2019-03-01T07:45:12.428Z,70.47
2019-03-01T07:48:01.633Z,70.62
2019-03-01T07:50:52.507Z,70.51
2019-03-01T07:53:41.920Z,70.42
2019-03-01T07:56:30.588Z,70.48
2019-03-01T07:59:19.675Z,70.50
2019-03-01T08:02:08.340Z,70.96
2019-03-01T08:04:56.588Z,71.22
2019-03-01T08:07:55.386Z,71.72
2019-03-01T08:10:36.442Z,72.07
2019-03-01T08:13:26.758Z,72.27
2019-03-01T08:16:16.610Z,72.67
2019-03-01T08:19:06.403Z,71.67
2019-03-01T08:21:55.398Z,72.16
2019-03-01T08:24:46.589Z,71.60
2019-03-01T08:27:34.777Z,72.12
2019-03-01T08:30:23.405Z,71.45
2019-03-01T08:33:13.399Z,71.48
2019-03-01T08:36:02.448Z,71.71
2019-03-01T08:38:52.024Z,70.72
2019-03-01T08:41:41.109Z,71.14
2019-03-01T08:44:30.181Z,71.73
2019-03-01T08:47:23.283Z,71.80
2019-03-01T08:50:10.840Z,72.30
2019-03-01T08:52:59.451Z,72.24
2019-03-01T08:55:48.246Z,72.19
2019-03-01T08:58:37.731Z,72.48
2019-03-01T09:01:26.948Z,71.66
2019-03-01T09:04:17.672Z,72.04
2019-03-01T09:07:05.150Z,72.24
2019-03-01T09:09:57.197Z,72.55
2019-03-01T09:12:44.262Z,72.75
2019-03-01T09:15:32.989Z,73.02
2019-03-01T09:18:23.199Z,72.81
2019-03-01T09:21:12.938Z,72.79
2019-03-01T09:24:02.270Z,72.37
2019-03-01T09:26:51.664Z,72.36
2019-03-01T09:29:41.928Z,72.53
2019-03-01T09:32:33.844Z,72.25
2019-03-01T09:35:44.005Z,72.28
2019-03-01T09:38:32.998Z,72.34
2019-03-01T09:41:21.779Z,73.05
2019-03-01T09:44:10.694Z,72.66
2019-03-01T09:47:01.731Z,72.42
2019-03-01T09:49:49.662Z,72.11
2019-03-01T09:52:38.798Z,72.13
2019-03-01T09:55:27.091Z,72.15
2019-03-01T09:58:16.233Z,72.28
2019-03-01T10:01:11.243Z,72.15
2019-03-01T10:04:01.005Z,72.29
2019-03-01T10:06:49.315Z,72.82
2019-03-01T10:09:38.663Z,72.55
2019-03-01T10:12:27.849Z,72.37
2019-03-01T10:15:16.306Z,72.70
2019-03-01T10:18:04.895Z,73.00
2019-03-01T10:20:53.735Z,72.20
2019-03-01T10:23:42.223Z,72.17
2019-03-01T10:26:30.577Z,72.01
2019-03-01T10:29:19.253Z,72.51
2019-03-01T10:32:07.808Z,72.40
2019-03-01T10:34:56.788Z,71.82
2019-03-01T10:37:45.668Z,71.09
2019-03-01T10:40:33.953Z,70.59
2019-03-01T10:43:23.506Z,70.43
2019-03-01T10:46:12.119Z,70.60
2019-03-01T10:49:00.746Z,69.88
2019-03-01T10:51:50.372Z,69.96
2019-03-01T10:54:39.301Z,69.49
2019-03-01T10:57:27.834Z,68.97
2019-03-01T11:00:21.320Z,68.73
2019-03-01T11:03:09.809Z,68.93
2019-03-01T11:05:58.701Z,69.51
2019-03-01T11:08:47.014Z,69.35
2019-03-01T11:11:35.213Z,69.46
2019-03-01T11:14:24.377Z,70.38
2019-03-01T11:17:13.282Z,70.19
2019-03-01T11:20:02.265Z,70.30
2019-03-01T11:22:51.608Z,70.42
2019-03-01T11:25:40.706Z,70.28
2019-03-01T11:28:29.773Z,70.08
2019-03-01T11:31:18.739Z,69.99
2019-03-01T11:34:07.332Z,70.06
2019-03-01T11:36:56.138Z,70.65
2019-03-01T11:39:45.354Z,70.24
2019-03-01T11:42:34.479Z,70.67
2019-03-01T11:45:22.871Z,70.65
2019-03-01T11:48:10.949Z,70.49
2019-03-01T11:50:59.641Z,70.81
2019-03-01T11:53:48.422Z,70.64
2019-03-01T11:56:36.774Z,70.02
2019-03-01T11:59:25.140Z,70.80
2019-03-01T12:02:14.375Z,70.62
2019-03-01T12:05:03.135Z,70.37
2019-03-01T12:07:51.701Z,69.70
2019-03-01T12:10:40.200Z,69.04
2019-03-01T12:13:28.405Z,68.68
2019-03-01T12:16:16.823Z,67.61
2019-03-01T12:19:05.394Z,68.25
2019-03-01T12:21:54.475Z,68.22
2019-03-01T12:24:43.374Z,68.34
2019-03-01T12:27:32.070Z,68.31
2019-03-01T12:30:21.932Z,68.54
2019-03-01T12:33:10.373Z,68.57
2019-03-01T12:35:58.682Z,68.31
2019-03-01T12:38:46.812Z,68.02
2019-03-01T12:41:35.469Z,67.75
2019-03-01T12:44:23.956Z,67.76
2019-03-01T12:47:12.836Z,67.62
2019-03-01T12:50:01.350Z,67.81
2019-03-01T12:52:50.273Z,67.93
2019-03-01T12:55:38.964Z,67.85
2019-03-01T12:58:27.769Z,67.67
2019-03-01T13:01:16.724Z,68.11
2019-03-01T13:04:05.231Z,68.21
2019-03-01T13:06:53.969Z,68.19
2019-03-01T13:09:43.069Z,68.11
2019-03-01T13:12:31.923Z,68.06
2019-03-01T13:15:20.526Z,68.37
2019-03-01T13:18:10.357Z,67.60
2019-03-01T13:20:59.546Z,67.31
2019-03-01T13:23:48.322Z,67.16
2019-03-01T13:26:37.632Z,67.46
2019-03-01T13:29:26.966Z,66.77
2019-03-01T13:32:15.961Z,65.90
2019-03-01T13:35:05.806Z,66.22
2019-03-01T13:37:55.564Z,66.39
2019-03-01T13:40:44.423Z,65.87
2019-03-01T13:43:33.360Z,66.51
2019-03-01T13:46:22.315Z,66.62
2019-03-01T13:49:11.488Z,68.59
2019-03-01T13:52:00.467Z,69.03
2019-03-01T13:54:49.231Z,68.59
2019-03-01T13:57:37.718Z,68.39
2019-03-01T14:00:26.312Z,68.97
2019-03-01T14:03:15.370Z,69.58
2019-03-01T14:06:04.488Z,69.17
2019-03-01T14:08:53.593Z,68.89
2019-03-01T14:11:42.772Z,68.48
2019-03-01T14:14:31.851Z,68.46
2019-03-01T14:17:21.098Z,67.99
2019-03-01T14:20:19.062Z,68.42
2019-03-01T14:23:04.390Z,69.17
2019-03-01T14:25:54.546Z,69.69
2019-03-01T14:28:43.725Z,70.40
2019-03-01T14:31:32.940Z,69.76
2019-03-01T14:34:21.138Z,69.73
2019-03-01T14:37:10.099Z,68.53
2019-03-01T14:39:59.094Z,68.67
2019-03-01T14:42:48.373Z,68.87
2019-03-01T14:45:36.993Z,68.47
2019-03-01T14:48:26.087Z,67.98
2019-03-01T14:51:14.762Z,68.02
2019-03-01T14:54:07.054Z,68.09
2019-03-01T14:57:10.627Z,68.44
2019-03-01T15:00:14.657Z,68.09
2019-03-01T15:03:26.503Z,68.53
2019-03-01T15:06:18.697Z,68.55
2019-03-01T15:09:07.808Z,68.53
2019-03-01T15:11:56.298Z,68.51
2019-03-01T15:14:49.579Z,68.53
2019-03-01T15:17:35.766Z,68.94
2019-03-01T15:20:24.474Z,68.92
2019-03-01T15:23:15.045Z,68.68
2019-03-01T15:26:05.303Z,69.57
2019-03-01T15:28:58.849Z,69.83
2019-03-01T15:31:51.096Z,70.04
2019-03-01T15:34:39.336Z,70.13
2019-03-01T15:37:31.008Z,70.31
2019-03-01T15:40:18.469Z,70.03
2019-03-01T15:43:09.156Z,70.38
2019-03-01T15:45:58.421Z,70.43
2019-03-01T15:48:46.972Z,70.68
2019-03-01T15:51:38.226Z,70.80
2019-03-01T15:54:26.515Z,70.79
2019-03-01T15:57:15.354Z,70.92
2019-03-01T16:00:05.898Z,71.17
2019-03-01T16:02:54.290Z,70.88
2019-03-01T16:05:42.492Z,70.72
2019-03-01T16:08:30.561Z,71.31
2019-03-01T16:11:19.449Z,71.37
2019-03-01T16:14:08.242Z,71.43
2019-03-01T16:16:56.631Z,72.10
2019-03-01T16:19:47.023Z,72.40
2019-03-01T16:22:35.657Z,73.31
2019-03-01T16:25:24.232Z,73.88
2019-03-01T16:28:14.642Z,73.94
2019-03-01T16:31:03.337Z,73.97
2019-03-01T16:33:51.736Z,74.34
2019-03-01T16:36:47.621Z,74.44
2019-03-01T16:39:35.776Z,74.56
2019-03-01T16:42:24.765Z,74.74
2019-03-01T16:45:13.973Z,74.96
2019-03-01T16:48:02.899Z,74.79
2019-03-01T16:50:51.616Z,74.86
2019-03-01T16:53:41.529Z,75.33
2019-03-01T16:56:30.894Z,75.34
2019-03-01T16:59:19.860Z,75.44
2019-03-01T17:02:09.125Z,75.56
2019-03-01T17:04:59.755Z,75.43
2019-03-01T17:07:48.027Z,75.14
2019-03-01T17:10:36.167Z,74.89
2019-03-01T17:13:27.028Z,74.60
2019-03-01T17:16:14.939Z,74.54
2019-03-01T17:19:03.835Z,74.15
2019-03-01T17:21:52.314Z,73.84
2019-03-01T17:24:41.312Z,73.93
2019-03-01T17:27:30.021Z,73.69
2019-03-01T17:30:19.317Z,73.53
2019-03-01T17:33:09.755Z,73.70
2019-03-01T17:36:00.047Z,73.64
2019-03-01T17:38:49.137Z,73.38
2019-03-01T17:41:37.715Z,73.54
2019-03-01T17:44:26.815Z,73.73
2019-03-01T17:47:16.187Z,74.04
2019-03-01T17:50:05.428Z,74.12
2019-03-01T17:52:55.601Z,74.22
2019-03-01T17:55:44.538Z,74.34
2019-03-01T17:58:32.863Z,74.68
2019-03-01T18:01:21.087Z,74.79
2019-03-01T18:04:09.725Z,74.72
2019-03-01T18:06:58.953Z,74.74
2019-03-01T18:09:47.545Z,74.72
2019-03-01T18:12:36.467Z,74.77
2019-03-01T18:15:25.405Z,74.84
2019-03-01T18:18:14.610Z,74.83
2019-03-01T18:21:03.582Z,74.76
2019-03-01T18:23:52.479Z,74.89
2019-03-01T18:26:41.495Z,74.91
2019-03-01T18:29:29.926Z,74.79
2019-03-01T18:32:18.912Z,74.71
2019-03-01T18:35:11.369Z,74.35
2019-03-01T18:37:58.540Z,74.44
2019-03-01T18:40:48.511Z,74.29
2019-03-01T18:43:37.752Z,74.21
2019-03-01T18:46:27.057Z,74.35
2019-03-01T18:49:16.757Z,74.37
2019-03-01T18:52:05.796Z,74.11
2019-03-01T18:54:55.026Z,74.12
2019-03-01T18:57:44.020Z,74.03
2019-03-01T19:00:36.929Z,74.03
2019-03-01T19:03:26.679Z,73.70
2019-03-01T19:06:16.300Z,73.71
2019-03-01T19:09:08.013Z,73.64
2019-03-01T19:11:57.261Z,73.72
2019-03-01T19:14:45.620Z,73.90
2019-03-01T19:17:36.762Z,73.63
2019-03-01T19:20:26.652Z,73.75
2019-03-01T19:23:15.632Z,73.58
2019-03-01T19:26:04.049Z,73.50
2019-03-01T19:28:53.458Z,73.35
2019-03-01T19:31:42.518Z,73.46
2019-03-01T19:34:31.476Z,73.46
2019-03-01T19:37:20.866Z,73.39
2019-03-01T19:40:12.165Z,73.38
2019-03-01T19:43:00.971Z,73.49
2019-03-01T19:45:49.906Z,73.44
2019-03-01T19:48:39.134Z,73.32
2019-03-01T19:51:28.434Z,73.19
2019-03-01T19:54:17.481Z,72.95
2019-03-01T19:57:06.532Z,72.71
2019-03-01T19:59:55.304Z,72.50
2019-03-01T20:02:44.452Z,72.17
2019-03-01T20:05:33.176Z,71.98
2019-03-01T20:08:22.459Z,72.10
2019-03-01T20:11:11.660Z,72.11
2019-03-01T20:14:00.741Z,72.12
2019-03-01T20:16:49.667Z,72.07
2019-03-01T20:19:38.926Z,72.37
2019-03-01T20:22:27.477Z,72.64
2019-03-01T20:25:17.441Z,72.72
2019-03-01T20:28:06.754Z,72.91
2019-03-01T20:30:55.937Z,73.07
2019-03-01T20:33:45.238Z,73.05
2019-03-01T20:36:34.307Z,73.23
2019-03-01T20:39:23.214Z,73.57
2019-03-01T20:42:12.194Z,73.72
2019-03-01T20:45:00.838Z,74.15
2019-03-01T20:47:50.528Z,74.31
2019-03-01T20:50:40.007Z,74.43
2019-03-01T20:53:28.926Z,74.54
2019-03-01T20:56:18.212Z,74.39
2019-03-01T20:59:06.992Z,74.35
2019-03-01T21:01:56.438Z,74.48
2019-03-01T21:04:53.203Z,74.48
2019-03-01T21:07:35.702Z,74.61
2019-03-01T21:10:25.211Z,74.86
2019-03-01T21:13:14.313Z,74.68
2019-03-01T21:16:03.447Z,74.52
2019-03-01T21:18:52.374Z,74.42
2019-03-01T21:21:40.769Z,74.32
2019-03-01T21:24:29.374Z,74.64
2019-03-01T21:27:18.325Z,74.59
2019-03-01T21:30:11.531Z,75.05
2019-03-01T21:33:00.440Z,75.44
2019-03-01T21:35:51.164Z,75.75
2019-03-01T21:38:39.928Z,75.88
2019-03-01T21:41:28.221Z,76.24
2019-03-01T21:44:17.051Z,76.34
2019-03-01T21:47:06.857Z,76.27
2019-03-01T21:49:55.897Z,76.40
2019-03-01T21:52:44.618Z,76.49
2019-03-01T21:55:32.812Z,76.35
2019-03-01T21:58:21.474Z,76.26
2019-03-01T22:01:09.968Z,76.43
2019-03-01T22:03:59.243Z,76.41
2019-03-01T22:06:49.174Z,76.44
2019-03-01T22:09:38.138Z,76.47
2019-03-01T22:12:26.095Z,76.29
2019-03-01T22:15:25.472Z,76.15
2019-03-01T22:18:14.167Z,75.77
2019-03-01T22:21:02.707Z,75.69
2019-03-01T22:23:54.052Z,75.53
2019-03-01T22:26:42.766Z,75.53
2019-03-01T22:29:31.540Z,75.46
2019-03-01T22:32:20.356Z,75.17
2019-03-01T22:35:10.610Z,75.09
2019-03-01T22:38:00.965Z,75.04
2019-03-01T22:40:49.406Z,75.09
2019-03-01T22:43:40.223Z,74.90
2019-03-01T22:46:28.107Z,75.00
2019-03-01T22:49:17.326Z,74.70
2019-03-01T22:52:06.286Z,74.95
2019-03-01T22:54:57.709Z,74.93
2019-03-01T22:57:45.217Z,74.74
2019-03-01T23:01:21.887Z,74.72
2019-03-01T23:04:10.909Z,74.69
2019-03-01T23:06:59.048Z,74.82
2019-03-01T23:09:47.590Z,74.68
2019-03-01T23:12:36.216Z,74.48
2019-03-01T23:15:24.849Z,74.38
2019-03-01T23:18:13.737Z,74.46
2019-03-01T23:21:02.128Z,74.46
2019-03-01T23:23:49.988Z,74.31
2019-03-01T23:26:37.875Z,74.20
2019-03-01T23:29:26.182Z,74.00
2019-03-01T23:32:15.518Z,74.01
2019-03-01T23:35:04.600Z,73.85
2019-03-01T23:37:52.752Z,73.63
2019-03-01T23:40:40.917Z,73.42
2019-03-01T23:43:30.895Z,73.41
2019-03-01T23:46:19.074Z,73.46
2019-03-01T23:49:07.692Z,73.42
2019-03-01T23:51:56.272Z,73.46
2019-03-01T23:54:45.307Z,73.62
2019-03-01T23:57:38.057Z,73.43
